sensor_id;sensor_type;location;lat;lon;timestamp;P1;durP1;ratioP1;P2;durP2;ratioP2
7025;SDS011;3554;42.132;24.786;2023-05-20T00:00:43;8.60;;;7.97;;
7025;SDS011;3554;42.132;24.786;2023-05-20T00:03:10;8.93;;;8.17;;
7025;SDS011;3554;42.132;24.786;2023-05-20T00:05:37;8.20;;;7.50;;
7025;SDS011;3554;42.132;24.786;2023-05-20T00:08:05;7.90;;;7.40;;
7025;SDS011;3554;42.132;24.786;2023-05-20T00:10:33;10.00;;;8.70;;
7025;SDS011;3554;42.132;24.786;2023-05-20T00:13:00;9.10;;;8.23;;
7025;SDS011;3554;42.132;24.786;2023-05-20T00:15:27;8.33;;;7.83;;
7025;SDS011;3554;42.132;24.786;2023-05-20T00:17:54;8.23;;;7.53;;
7025;SDS011;3554;42.132;24.786;2023-05-20T00:20:21;8.93;;;8.33;;
7025;SDS011;3554;42.132;24.786;2023-05-20T00:22:48;8.67;;;7.97;;
7025;SDS011;3554;42.132;24.786;2023-05-20T00:25:16;7.63;;;6.87;;
7025;SDS011;3554;42.132;24.786;2023-05-20T00:27:43;8.00;;;7.30;;
7025;SDS011;3554;42.132;24.786;2023-05-20T00:30:10;8.53;;;7.80;;
7025;SDS011;3554;42.132;24.786;2023-05-20T00:32:37;8.13;;;7.53;;
7025;SDS011;3554;42.132;24.786;2023-05-20T00:35:05;8.07;;;7.57;;
7025;SDS011;3554;42.132;24.786;2023-05-20T00:37:32;8.30;;;7.57;;
7025;SDS011;3554;42.132;24.786;2023-05-20T00:39:59;7.03;;;6.63;;
7025;SDS011;3554;42.132;24.786;2023-05-20T00:42:27;8.50;;;7.73;;
7025;SDS011;3554;42.132;24.786;2023-05-20T00:44:54;7.80;;;6.97;;
7025;SDS011;3554;42.132;24.786;2023-05-20T00:47:23;7.93;;;7.17;;
7025;SDS011;3554;42.132;24.786;2023-05-20T00:49:53;7.63;;;6.70;;
7025;SDS011;3554;42.132;24.786;2023-05-20T00:52:20;7.77;;;7.33;;
7025;SDS011;3554;42.132;24.786;2023-05-20T00:54:48;7.83;;;7.27;;
7025;SDS011;3554;42.132;24.786;2023-05-20T00:57:15;8.33;;;7.57;;
7025;SDS011;3554;42.132;24.786;2023-05-20T00:59:46;9.93;;;7.77;;
7025;SDS011;3554;42.132;24.786;2023-05-20T01:02:12;9.87;;;8.17;;
7025;SDS011;3554;42.132;24.786;2023-05-20T01:04:39;9.27;;;7.60;;
7025;SDS011;3554;42.132;24.786;2023-05-20T01:07:11;10.73;;;7.97;;
7025;SDS011;3554;42.132;24.786;2023-05-20T01:09:38;9.73;;;8.83;;
7025;SDS011;3554;42.132;24.786;2023-05-20T01:12:08;9.27;;;8.40;;
7025;SDS011;3554;42.132;24.786;2023-05-20T01:14:40;9.13;;;8.20;;
7025;SDS011;3554;42.132;24.786;2023-05-20T01:17:13;9.90;;;8.87;;
7025;SDS011;3554;42.132;24.786;2023-05-20T01:19:42;8.50;;;7.90;;
7025;SDS011;3554;42.132;24.786;2023-05-20T01:22:10;10.30;;;9.20;;
7025;SDS011;3554;42.132;24.786;2023-05-20T01:24:40;8.93;;;8.33;;
7025;SDS011;3554;42.132;24.786;2023-05-20T01:27:08;9.73;;;8.93;;
7025;SDS011;3554;42.132;24.786;2023-05-20T01:29:35;10.33;;;9.00;;
7025;SDS011;3554;42.132;24.786;2023-05-20T01:32:04;8.77;;;8.17;;
7025;SDS011;3554;42.132;24.786;2023-05-20T01:34:33;9.03;;;8.40;;
7025;SDS011;3554;42.132;24.786;2023-05-20T01:37:01;9.63;;;8.93;;
7025;SDS011;3554;42.132;24.786;2023-05-20T01:39:30;10.27;;;9.37;;
7025;SDS011;3554;42.132;24.786;2023-05-20T01:42:04;9.10;;;8.40;;
7025;SDS011;3554;42.132;24.786;2023-05-20T01:44:32;9.77;;;8.93;;
7025;SDS011;3554;42.132;24.786;2023-05-20T01:46:59;9.90;;;9.00;;
7025;SDS011;3554;42.132;24.786;2023-05-20T01:49:26;9.20;;;8.40;;
7025;SDS011;3554;42.132;24.786;2023-05-20T01:51:53;9.37;;;8.57;;
7025;SDS011;3554;42.132;24.786;2023-05-20T01:54:20;9.13;;;8.33;;
7025;SDS011;3554;42.132;24.786;2023-05-20T01:56:48;9.43;;;8.57;;
7025;SDS011;3554;42.132;24.786;2023-05-20T01:59:16;10.50;;;8.70;;
7025;SDS011;3554;42.132;24.786;2023-05-20T02:01:43;10.33;;;8.53;;
7025;SDS011;3554;42.132;24.786;2023-05-20T02:04:11;9.63;;;8.47;;
7025;SDS011;3554;42.132;24.786;2023-05-20T02:06:38;11.30;;;8.07;;
7025;SDS011;3554;42.132;24.786;2023-05-20T02:09:04;10.13;;;9.23;;
7025;SDS011;3554;42.132;24.786;2023-05-20T02:11:31;9.63;;;8.50;;
7025;SDS011;3554;42.132;24.786;2023-05-20T02:13:58;9.30;;;8.60;;
7025;SDS011;3554;42.132;24.786;2023-05-20T02:16:26;12.47;;;9.17;;
7025;SDS011;3554;42.132;24.786;2023-05-20T02:18:53;9.83;;;9.00;;
7025;SDS011;3554;42.132;24.786;2023-05-20T02:21:22;9.27;;;8.50;;
7025;SDS011;3554;42.132;24.786;2023-05-20T02:23:49;9.73;;;8.97;;
7025;SDS011;3554;42.132;24.786;2023-05-20T02:26:16;10.07;;;9.17;;
7025;SDS011;3554;42.132;24.786;2023-05-20T02:28:42;9.03;;;8.23;;
7025;SDS011;3554;42.132;24.786;2023-05-20T02:31:10;8.80;;;8.00;;
7025;SDS011;3554;42.132;24.786;2023-05-20T02:33:39;15.90;;;8.17;;
7025;SDS011;3554;42.132;24.786;2023-05-20T02:36:06;9.57;;;8.60;;
7025;SDS011;3554;42.132;24.786;2023-05-20T02:38:33;9.50;;;8.67;;
7025;SDS011;3554;42.132;24.786;2023-05-20T02:41:00;9.37;;;8.60;;
7025;SDS011;3554;42.132;24.786;2023-05-20T02:43:28;8.37;;;7.60;;
7025;SDS011;3554;42.132;24.786;2023-05-20T02:45:55;9.87;;;8.97;;
7025;SDS011;3554;42.132;24.786;2023-05-20T02:48:22;9.90;;;9.07;;
7025;SDS011;3554;42.132;24.786;2023-05-20T02:50:50;8.40;;;7.80;;
7025;SDS011;3554;42.132;24.786;2023-05-20T02:53:17;9.27;;;8.43;;
7025;SDS011;3554;42.132;24.786;2023-05-20T02:55:44;10.17;;;9.17;;
7025;SDS011;3554;42.132;24.786;2023-05-20T02:58:12;9.53;;;8.83;;
7025;SDS011;3554;42.132;24.786;2023-05-20T03:00:39;9.07;;;8.30;;
7025;SDS011;3554;42.132;24.786;2023-05-20T03:03:06;9.90;;;8.47;;
7025;SDS011;3554;42.132;24.786;2023-05-20T03:05:34;14.30;;;8.50;;
7025;SDS011;3554;42.132;24.786;2023-05-20T03:08:05;12.97;;;8.63;;
7025;SDS011;3554;42.132;24.786;2023-05-20T03:10:34;9.50;;;8.70;;
7025;SDS011;3554;42.132;24.786;2023-05-20T03:13:01;9.27;;;8.43;;
7025;SDS011;3554;42.132;24.786;2023-05-20T03:15:32;9.27;;;8.33;;
7025;SDS011;3554;42.132;24.786;2023-05-20T03:17:59;13.80;;;9.30;;
7025;SDS011;3554;42.132;24.786;2023-05-20T03:20:26;8.77;;;8.03;;
7025;SDS011;3554;42.132;24.786;2023-05-20T03:22:54;8.97;;;8.37;;
7025;SDS011;3554;42.132;24.786;2023-05-20T03:25:22;9.37;;;8.63;;
7025;SDS011;3554;42.132;24.786;2023-05-20T03:27:49;9.00;;;8.10;;
7025;SDS011;3554;42.132;24.786;2023-05-20T03:30:16;9.57;;;8.50;;
7025;SDS011;3554;42.132;24.786;2023-05-20T03:32:43;10.30;;;9.33;;
7025;SDS011;3554;42.132;24.786;2023-05-20T03:35:10;10.80;;;8.90;;
7025;SDS011;3554;42.132;24.786;2023-05-20T03:37:37;8.73;;;8.03;;
7025;SDS011;3554;42.132;24.786;2023-05-20T03:40:06;8.63;;;7.83;;
7025;SDS011;3554;42.132;24.786;2023-05-20T03:42:35;9.00;;;8.00;;
7025;SDS011;3554;42.132;24.786;2023-05-20T03:45:03;9.47;;;8.63;;
7025;SDS011;3554;42.132;24.786;2023-05-20T03:47:31;9.87;;;9.07;;
7025;SDS011;3554;42.132;24.786;2023-05-20T03:49:58;9.27;;;8.30;;
7025;SDS011;3554;42.132;24.786;2023-05-20T03:52:24;8.37;;;7.70;;
7025;SDS011;3554;42.132;24.786;2023-05-20T03:54:52;9.03;;;8.23;;
7025;SDS011;3554;42.132;24.786;2023-05-20T03:57:18;8.90;;;8.10;;
7025;SDS011;3554;42.132;24.786;2023-05-20T03:59:47;8.87;;;7.97;;
7025;SDS011;3554;42.132;24.786;2023-05-20T04:02:13;8.63;;;7.93;;
7025;SDS011;3554;42.132;24.786;2023-05-20T04:04:40;8.67;;;7.90;;
7025;SDS011;3554;42.132;24.786;2023-05-20T04:07:07;9.20;;;8.37;;
7025;SDS011;3554;42.132;24.786;2023-05-20T04:09:34;8.00;;;7.23;;
7025;SDS011;3554;42.132;24.786;2023-05-20T04:12:01;8.33;;;7.60;;
7025;SDS011;3554;42.132;24.786;2023-05-20T04:14:28;8.17;;;7.60;;
7025;SDS011;3554;42.132;24.786;2023-05-20T04:16:56;10.50;;;7.57;;
7025;SDS011;3554;42.132;24.786;2023-05-20T04:19:23;8.00;;;7.50;;
7025;SDS011;3554;42.132;24.786;2023-05-20T04:21:52;8.33;;;7.50;;
7025;SDS011;3554;42.132;24.786;2023-05-20T04:24:19;7.80;;;7.20;;
7025;SDS011;3554;42.132;24.786;2023-05-20T04:26:49;8.03;;;7.43;;
7025;SDS011;3554;42.132;24.786;2023-05-20T04:29:17;9.10;;;8.40;;
7025;SDS011;3554;42.132;24.786;2023-05-20T04:31:44;8.17;;;7.57;;
7025;SDS011;3554;42.132;24.786;2023-05-20T04:34:12;9.40;;;7.63;;
7025;SDS011;3554;42.132;24.786;2023-05-20T04:36:43;8.33;;;7.30;;
7025;SDS011;3554;42.132;24.786;2023-05-20T04:39:10;9.53;;;7.90;;
7025;SDS011;3554;42.132;24.786;2023-05-20T04:41:37;7.40;;;6.97;;
7025;SDS011;3554;42.132;24.786;2023-05-20T04:44:04;10.80;;;7.47;;
7025;SDS011;3554;42.132;24.786;2023-05-20T04:46:31;9.53;;;8.57;;
7025;SDS011;3554;42.132;24.786;2023-05-20T04:48:58;8.47;;;7.70;;
7025;SDS011;3554;42.132;24.786;2023-05-20T04:51:26;10.83;;;7.00;;
7025;SDS011;3554;42.132;24.786;2023-05-20T04:53:54;8.73;;;7.30;;
7025;SDS011;3554;42.132;24.786;2023-05-20T04:56:21;8.53;;;7.73;;
7025;SDS011;3554;42.132;24.786;2023-05-20T04:58:47;7.40;;;6.90;;
7025;SDS011;3554;42.132;24.786;2023-05-20T05:01:14;7.53;;;6.97;;
7025;SDS011;3554;42.132;24.786;2023-05-20T05:03:41;8.40;;;7.20;;
7025;SDS011;3554;42.132;24.786;2023-05-20T05:06:07;6.90;;;6.40;;
7025;SDS011;3554;42.132;24.786;2023-05-20T05:08:36;9.23;;;7.70;;
7025;SDS011;3554;42.132;24.786;2023-05-20T05:11:03;12.40;;;7.57;;
7025;SDS011;3554;42.132;24.786;2023-05-20T05:13:30;8.37;;;7.63;;
7025;SDS011;3554;42.132;24.786;2023-05-20T05:15:57;9.80;;;7.77;;
7025;SDS011;3554;42.132;24.786;2023-05-20T05:18:24;7.30;;;6.80;;
7025;SDS011;3554;42.132;24.786;2023-05-20T05:20:57;7.73;;;6.63;;
7025;SDS011;3554;42.132;24.786;2023-05-20T05:23:24;7.53;;;6.93;;
7025;SDS011;3554;42.132;24.786;2023-05-20T05:25:53;8.10;;;7.30;;
7025;SDS011;3554;42.132;24.786;2023-05-20T05:28:19;7.30;;;6.70;;
7025;SDS011;3554;42.132;24.786;2023-05-20T05:30:46;8.50;;;7.80;;
7025;SDS011;3554;42.132;24.786;2023-05-20T05:33:13;9.00;;;7.63;;
7025;SDS011;3554;42.132;24.786;2023-05-20T05:35:40;11.17;;;7.37;;
7025;SDS011;3554;42.132;24.786;2023-05-20T05:38:07;8.10;;;7.27;;
7025;SDS011;3554;42.132;24.786;2023-05-20T05:40:34;7.70;;;7.10;;
7025;SDS011;3554;42.132;24.786;2023-05-20T05:43:02;11.23;;;7.10;;
7025;SDS011;3554;42.132;24.786;2023-05-20T05:45:29;8.37;;;7.60;;
7025;SDS011;3554;42.132;24.786;2023-05-20T05:47:56;8.80;;;7.57;;
7025;SDS011;3554;42.132;24.786;2023-05-20T05:50:23;8.37;;;7.50;;
7025;SDS011;3554;42.132;24.786;2023-05-20T05:52:49;8.33;;;7.53;;
7025;SDS011;3554;42.132;24.786;2023-05-20T05:55:16;9.53;;;7.50;;
7025;SDS011;3554;42.132;24.786;2023-05-20T05:57:43;9.50;;;7.60;;
7025;SDS011;3554;42.132;24.786;2023-05-20T06:00:12;8.40;;;7.33;;
7025;SDS011;3554;42.132;24.786;2023-05-20T06:02:39;8.03;;;7.30;;
7025;SDS011;3554;42.132;24.786;2023-05-20T06:05:06;8.23;;;7.47;;
7025;SDS011;3554;42.132;24.786;2023-05-20T06:07:33;11.50;;;8.23;;
7025;SDS011;3554;42.132;24.786;2023-05-20T06:10:00;7.77;;;7.10;;
7025;SDS011;3554;42.132;24.786;2023-05-20T06:12:27;10.30;;;7.00;;
7025;SDS011;3554;42.132;24.786;2023-05-20T06:14:54;8.07;;;7.23;;
7025;SDS011;3554;42.132;24.786;2023-05-20T06:17:22;9.60;;;7.90;;
7025;SDS011;3554;42.132;24.786;2023-05-20T06:19:49;9.83;;;7.40;;
7025;SDS011;3554;42.132;24.786;2023-05-20T06:22:16;8.03;;;7.13;;
7025;SDS011;3554;42.132;24.786;2023-05-20T06:24:43;8.10;;;6.97;;
7025;SDS011;3554;42.132;24.786;2023-05-20T06:27:09;8.77;;;6.90;;
7025;SDS011;3554;42.132;24.786;2023-05-20T06:29:36;9.27;;;7.43;;
7025;SDS011;3554;42.132;24.786;2023-05-20T06:32:03;9.03;;;7.33;;
7025;SDS011;3554;42.132;24.786;2023-05-20T06:34:32;13.07;;;11.87;;
7025;SDS011;3554;42.132;24.786;2023-05-20T06:36:59;7.47;;;6.20;;
7025;SDS011;3554;42.132;24.786;2023-05-20T06:39:26;6.47;;;5.97;;
7025;SDS011;3554;42.132;24.786;2023-05-20T06:41:53;7.70;;;6.10;;
7025;SDS011;3554;42.132;24.786;2023-05-20T06:44:20;7.33;;;6.73;;
7025;SDS011;3554;42.132;24.786;2023-05-20T06:46:46;8.63;;;7.93;;
7025;SDS011;3554;42.132;24.786;2023-05-20T06:49:13;8.57;;;7.87;;
7025;SDS011;3554;42.132;24.786;2023-05-20T06:51:41;9.37;;;6.23;;
7025;SDS011;3554;42.132;24.786;2023-05-20T06:54:08;6.50;;;5.80;;
7025;SDS011;3554;42.132;24.786;2023-05-20T06:56:35;7.97;;;6.57;;
7025;SDS011;3554;42.132;24.786;2023-05-20T06:59:01;23.60;;;18.13;;
7025;SDS011;3554;42.132;24.786;2023-05-20T07:01:28;6.57;;;5.93;;
7025;SDS011;3554;42.132;24.786;2023-05-20T07:03:55;7.00;;;6.50;;
7025;SDS011;3554;42.132;24.786;2023-05-20T07:06:22;6.37;;;5.77;;
7025;SDS011;3554;42.132;24.786;2023-05-20T07:08:50;7.63;;;7.10;;
7025;SDS011;3554;42.132;24.786;2023-05-20T07:11:17;7.70;;;7.10;;
7025;SDS011;3554;42.132;24.786;2023-05-20T07:13:43;6.63;;;6.00;;
7025;SDS011;3554;42.132;24.786;2023-05-20T07:16:10;6.40;;;5.90;;
7025;SDS011;3554;42.132;24.786;2023-05-20T07:18:37;6.93;;;6.53;;
7025;SDS011;3554;42.132;24.786;2023-05-20T07:21:04;6.70;;;6.10;;
7025;SDS011;3554;42.132;24.786;2023-05-20T07:23:30;6.60;;;6.20;;
7025;SDS011;3554;42.132;24.786;2023-05-20T07:25:58;6.80;;;6.17;;
7025;SDS011;3554;42.132;24.786;2023-05-20T07:28:25;6.67;;;5.87;;
7025;SDS011;3554;42.132;24.786;2023-05-20T07:30:52;7.10;;;6.60;;
7025;SDS011;3554;42.132;24.786;2023-05-20T07:33:20;9.97;;;5.97;;
7025;SDS011;3554;42.132;24.786;2023-05-20T07:35:47;10.50;;;6.17;;
7025;SDS011;3554;42.132;24.786;2023-05-20T07:38:14;8.50;;;6.40;;
7025;SDS011;3554;42.132;24.786;2023-05-20T07:40:40;6.20;;;5.83;;
7025;SDS011;3554;42.132;24.786;2023-05-20T07:43:08;7.90;;;7.20;;
7025;SDS011;3554;42.132;24.786;2023-05-20T07:45:35;7.57;;;7.07;;
7025;SDS011;3554;42.132;24.786;2023-05-20T07:48:02;6.77;;;6.17;;
7025;SDS011;3554;42.132;24.786;2023-05-20T07:50:29;6.87;;;6.37;;
7025;SDS011;3554;42.132;24.786;2023-05-20T07:52:56;5.67;;;5.27;;
7025;SDS011;3554;42.132;24.786;2023-05-20T07:55:23;5.97;;;5.53;;
7025;SDS011;3554;42.132;24.786;2023-05-20T07:57:49;6.33;;;5.93;;
7025;SDS011;3554;42.132;24.786;2023-05-20T08:00:18;6.23;;;5.80;;
7025;SDS011;3554;42.132;24.786;2023-05-20T08:02:45;5.57;;;5.10;;
7025;SDS011;3554;42.132;24.786;2023-05-20T08:05:12;5.93;;;5.43;;
7025;SDS011;3554;42.132;24.786;2023-05-20T08:07:39;6.93;;;6.20;;
7025;SDS011;3554;42.132;24.786;2023-05-20T08:10:06;5.07;;;4.67;;
7025;SDS011;3554;42.132;24.786;2023-05-20T08:12:33;6.03;;;5.43;;
7025;SDS011;3554;42.132;24.786;2023-05-20T08:15:00;5.67;;;5.27;;
7025;SDS011;3554;42.132;24.786;2023-05-20T08:17:28;8.53;;;5.60;;
7025;SDS011;3554;42.132;24.786;2023-05-20T08:19:55;5.50;;;5.20;;
7025;SDS011;3554;42.132;24.786;2023-05-20T08:22:22;5.17;;;4.87;;
7025;SDS011;3554;42.132;24.786;2023-05-20T08:24:49;5.90;;;5.50;;
7025;SDS011;3554;42.132;24.786;2023-05-20T08:27:16;6.37;;;5.87;;
7025;SDS011;3554;42.132;24.786;2023-05-20T08:29:43;6.20;;;5.73;;
7025;SDS011;3554;42.132;24.786;2023-05-20T08:32:10;6.40;;;5.80;;
7025;SDS011;3554;42.132;24.786;2023-05-20T08:34:38;6.17;;;5.53;;
7025;SDS011;3554;42.132;24.786;2023-05-20T08:37:04;5.77;;;5.30;;
7025;SDS011;3554;42.132;24.786;2023-05-20T08:39:31;6.97;;;6.47;;
7025;SDS011;3554;42.132;24.786;2023-05-20T08:41:58;6.87;;;6.17;;
7025;SDS011;3554;42.132;24.786;2023-05-20T08:44:25;6.40;;;5.90;;
7025;SDS011;3554;42.132;24.786;2023-05-20T08:46:53;7.00;;;6.50;;
7025;SDS011;3554;42.132;24.786;2023-05-20T08:49:22;6.03;;;5.63;;
7025;SDS011;3554;42.132;24.786;2023-05-20T08:51:50;5.73;;;5.33;;
7025;SDS011;3554;42.132;24.786;2023-05-20T08:54:17;5.73;;;5.20;;
7025;SDS011;3554;42.132;24.786;2023-05-20T08:56:48;5.87;;;5.37;;
7025;SDS011;3554;42.132;24.786;2023-05-20T08:59:15;5.33;;;4.93;;
7025;SDS011;3554;42.132;24.786;2023-05-20T09:01:43;5.20;;;4.70;;
7025;SDS011;3554;42.132;24.786;2023-05-20T09:04:10;5.63;;;5.33;;
7025;SDS011;3554;42.132;24.786;2023-05-20T09:06:43;5.53;;;5.13;;
7025;SDS011;3554;42.132;24.786;2023-05-20T09:09:12;5.40;;;5.00;;
7025;SDS011;3554;42.132;24.786;2023-05-20T09:11:39;5.90;;;5.40;;
7025;SDS011;3554;42.132;24.786;2023-05-20T09:14:07;5.30;;;5.00;;
7025;SDS011;3554;42.132;24.786;2023-05-20T09:16:34;7.07;;;5.37;;
7025;SDS011;3554;42.132;24.786;2023-05-20T09:19:01;5.20;;;4.87;;
7025;SDS011;3554;42.132;24.786;2023-05-20T09:21:31;5.43;;;4.90;;
7025;SDS011;3554;42.132;24.786;2023-05-20T09:24:00;6.07;;;5.57;;
7025;SDS011;3554;42.132;24.786;2023-05-20T09:26:28;5.43;;;5.13;;
7025;SDS011;3554;42.132;24.786;2023-05-20T09:28:55;5.60;;;5.10;;
7025;SDS011;3554;42.132;24.786;2023-05-20T09:31:24;6.50;;;6.00;;
7025;SDS011;3554;42.132;24.786;2023-05-20T09:33:53;5.77;;;5.20;;
7025;SDS011;3554;42.132;24.786;2023-05-20T09:36:21;4.50;;;4.30;;
7025;SDS011;3554;42.132;24.786;2023-05-20T09:38:49;5.00;;;4.67;;
7025;SDS011;3554;42.132;24.786;2023-05-20T09:41:18;5.20;;;4.90;;
7025;SDS011;3554;42.132;24.786;2023-05-20T09:43:49;5.10;;;4.80;;
7025;SDS011;3554;42.132;24.786;2023-05-20T09:46:17;5.70;;;5.30;;
7025;SDS011;3554;42.132;24.786;2023-05-20T09:48:45;5.10;;;4.70;;
7025;SDS011;3554;42.132;24.786;2023-05-20T09:51:12;5.73;;;5.33;;
7025;SDS011;3554;42.132;24.786;2023-05-20T09:53:40;6.20;;;5.20;;
7025;SDS011;3554;42.132;24.786;2023-05-20T09:56:08;5.77;;;5.20;;
7025;SDS011;3554;42.132;24.786;2023-05-20T09:58:35;5.17;;;4.67;;
7025;SDS011;3554;42.132;24.786;2023-05-20T10:01:04;5.83;;;5.03;;
7025;SDS011;3554;42.132;24.786;2023-05-20T10:03:31;5.90;;;5.37;;
7025;SDS011;3554;42.132;24.786;2023-05-20T10:09:13;5.03;;;4.67;;
7025;SDS011;3554;42.132;24.786;2023-05-20T10:11:51;5.47;;;5.07;;
7025;SDS011;3554;42.132;24.786;2023-05-20T10:14:32;5.63;;;5.07;;
7025;SDS011;3554;42.132;24.786;2023-05-20T10:17:06;5.33;;;4.93;;
7025;SDS011;3554;42.132;24.786;2023-05-20T10:19:42;5.80;;;5.40;;
7025;SDS011;3554;42.132;24.786;2023-05-20T10:22:09;5.53;;;5.13;;
7025;SDS011;3554;42.132;24.786;2023-05-20T10:24:38;5.67;;;5.27;;
7025;SDS011;3554;42.132;24.786;2023-05-20T10:27:07;6.37;;;5.80;;
7025;SDS011;3554;42.132;24.786;2023-05-20T10:29:41;4.70;;;4.40;;
7025;SDS011;3554;42.132;24.786;2023-05-20T10:32:11;4.50;;;4.20;;
7025;SDS011;3554;42.132;24.786;2023-05-20T10:34:49;5.73;;;5.43;;
7025;SDS011;3554;42.132;24.786;2023-05-20T10:37:22;5.83;;;5.33;;
7025;SDS011;3554;42.132;24.786;2023-05-20T10:39:51;4.97;;;4.57;;
7025;SDS011;3554;42.132;24.786;2023-05-20T10:42:28;5.50;;;5.10;;
7025;SDS011;3554;42.132;24.786;2023-05-20T10:44:55;5.23;;;4.93;;
7025;SDS011;3554;42.132;24.786;2023-05-20T10:47:23;5.63;;;5.23;;
7025;SDS011;3554;42.132;24.786;2023-05-20T10:49:50;5.93;;;4.87;;
7025;SDS011;3554;42.132;24.786;2023-05-20T10:52:17;8.57;;;5.53;;
7025;SDS011;3554;42.132;24.786;2023-05-20T10:54:45;5.87;;;5.40;;
7025;SDS011;3554;42.132;24.786;2023-05-20T10:57:13;5.40;;;5.10;;
7025;SDS011;3554;42.132;24.786;2023-05-20T10:59:40;5.77;;;5.13;;
7025;SDS011;3554;42.132;24.786;2023-05-20T11:02:07;4.90;;;4.60;;
7025;SDS011;3554;42.132;24.786;2023-05-20T11:04:38;4.93;;;4.63;;
7025;SDS011;3554;42.132;24.786;2023-05-20T11:07:05;5.03;;;4.73;;
7025;SDS011;3554;42.132;24.786;2023-05-20T11:09:32;5.70;;;5.20;;
7025;SDS011;3554;42.132;24.786;2023-05-20T11:11:59;4.57;;;4.17;;
7025;SDS011;3554;42.132;24.786;2023-05-20T11:14:26;5.07;;;4.67;;
7025;SDS011;3554;42.132;24.786;2023-05-20T11:16:55;8.73;;;5.80;;
7025;SDS011;3554;42.132;24.786;2023-05-20T11:19:22;5.30;;;4.90;;
7025;SDS011;3554;42.132;24.786;2023-05-20T11:21:50;5.90;;;5.30;;
7025;SDS011;3554;42.132;24.786;2023-05-20T11:24:21;5.47;;;5.07;;
7025;SDS011;3554;42.132;24.786;2023-05-20T11:26:49;6.13;;;5.27;;
7025;SDS011;3554;42.132;24.786;2023-05-20T11:29:16;4.97;;;4.40;;
7025;SDS011;3554;42.132;24.786;2023-05-20T11:31:46;5.20;;;4.90;;
7025;SDS011;3554;42.132;24.786;2023-05-20T11:34:13;4.93;;;4.53;;
7025;SDS011;3554;42.132;24.786;2023-05-20T11:36:40;4.77;;;4.40;;
7025;SDS011;3554;42.132;24.786;2023-05-20T11:39:09;6.30;;;4.60;;
7025;SDS011;3554;42.132;24.786;2023-05-20T11:41:37;5.87;;;4.37;;
7025;SDS011;3554;42.132;24.786;2023-05-20T11:44:06;4.27;;;4.07;;
7025;SDS011;3554;42.132;24.786;2023-05-20T11:46:39;5.80;;;5.40;;
7025;SDS011;3554;42.132;24.786;2023-05-20T11:49:07;5.07;;;4.67;;
7025;SDS011;3554;42.132;24.786;2023-05-20T11:51:34;5.20;;;4.10;;
7025;SDS011;3554;42.132;24.786;2023-05-20T11:54:03;4.43;;;4.10;;
7025;SDS011;3554;42.132;24.786;2023-05-20T11:56:33;4.67;;;4.47;;
7025;SDS011;3554;42.132;24.786;2023-05-20T11:59:01;4.67;;;4.37;;
7025;SDS011;3554;42.132;24.786;2023-05-20T12:01:29;4.07;;;3.87;;
7025;SDS011;3554;42.132;24.786;2023-05-20T12:04:02;4.27;;;4.07;;
7025;SDS011;3554;42.132;24.786;2023-05-20T12:06:29;5.10;;;4.60;;
7025;SDS011;3554;42.132;24.786;2023-05-20T12:08:57;5.07;;;4.70;;
7025;SDS011;3554;42.132;24.786;2023-05-20T12:11:24;5.10;;;4.70;;
7025;SDS011;3554;42.132;24.786;2023-05-20T12:13:53;4.27;;;3.50;;
7025;SDS011;3554;42.132;24.786;2023-05-20T12:16:19;4.80;;;4.40;;
7025;SDS011;3554;42.132;24.786;2023-05-20T12:18:46;4.97;;;4.60;;
7025;SDS011;3554;42.132;24.786;2023-05-20T12:21:13;4.57;;;4.27;;
7025;SDS011;3554;42.132;24.786;2023-05-20T12:23:40;4.33;;;4.07;;
7025;SDS011;3554;42.132;24.786;2023-05-20T12:26:06;5.10;;;4.80;;
7025;SDS011;3554;42.132;24.786;2023-05-20T12:28:33;5.20;;;4.80;;
7025;SDS011;3554;42.132;24.786;2023-05-20T12:31:01;4.80;;;4.40;;
7025;SDS011;3554;42.132;24.786;2023-05-20T12:33:28;5.00;;;4.60;;
7025;SDS011;3554;42.132;24.786;2023-05-20T12:35:55;4.77;;;4.40;;
7025;SDS011;3554;42.132;24.786;2023-05-20T12:38:22;5.37;;;4.83;;
7025;SDS011;3554;42.132;24.786;2023-05-20T12:40:48;4.80;;;4.40;;
7025;SDS011;3554;42.132;24.786;2023-05-20T12:43:15;5.83;;;5.00;;
7025;SDS011;3554;42.132;24.786;2023-05-20T12:45:42;7.60;;;4.50;;
7025;SDS011;3554;42.132;24.786;2023-05-20T12:48:10;4.37;;;4.07;;
7025;SDS011;3554;42.132;24.786;2023-05-20T12:50:37;4.60;;;4.30;;
7025;SDS011;3554;42.132;24.786;2023-05-20T12:53:03;4.63;;;4.20;;
7025;SDS011;3554;42.132;24.786;2023-05-20T12:55:30;4.77;;;4.57;;
7025;SDS011;3554;42.132;24.786;2023-05-20T12:57:57;5.43;;;4.93;;
7025;SDS011;3554;42.132;24.786;2023-05-20T13:00:24;5.43;;;4.93;;
7025;SDS011;3554;42.132;24.786;2023-05-20T13:02:51;7.87;;;7.27;;
7025;SDS011;3554;42.132;24.786;2023-05-20T13:05:21;4.97;;;4.57;;
7025;SDS011;3554;42.132;24.786;2023-05-20T13:07:48;5.80;;;5.20;;
7025;SDS011;3554;42.132;24.786;2023-05-20T13:10:15;5.07;;;4.67;;
7025;SDS011;3554;42.132;24.786;2023-05-20T13:12:42;5.33;;;4.87;;
7025;SDS011;3554;42.132;24.786;2023-05-20T13:15:10;5.70;;;5.20;;
7025;SDS011;3554;42.132;24.786;2023-05-20T13:17:37;5.67;;;5.27;;
7025;SDS011;3554;42.132;24.786;2023-05-20T13:20:04;4.63;;;4.23;;
7025;SDS011;3554;42.132;24.786;2023-05-20T13:22:33;4.43;;;4.03;;
7025;SDS011;3554;42.132;24.786;2023-05-20T13:25:00;4.87;;;4.40;;
7025;SDS011;3554;42.132;24.786;2023-05-20T13:27:28;4.80;;;4.40;;
7025;SDS011;3554;42.132;24.786;2023-05-20T13:29:55;4.77;;;4.37;;
7025;SDS011;3554;42.132;24.786;2023-05-20T13:32:22;4.10;;;3.80;;
7025;SDS011;3554;42.132;24.786;2023-05-20T13:34:49;4.90;;;3.40;;
7025;SDS011;3554;42.132;24.786;2023-05-20T13:37:16;3.87;;;3.67;;
7025;SDS011;3554;42.132;24.786;2023-05-20T13:39:44;4.07;;;3.77;;
7025;SDS011;3554;42.132;24.786;2023-05-20T13:42:10;4.43;;;4.03;;
7025;SDS011;3554;42.132;24.786;2023-05-20T13:44:37;5.00;;;3.90;;
7025;SDS011;3554;42.132;24.786;2023-05-20T13:47:04;4.47;;;4.17;;
7025;SDS011;3554;42.132;24.786;2023-05-20T13:49:31;5.83;;;3.93;;
7025;SDS011;3554;42.132;24.786;2023-05-20T13:51:58;4.60;;;4.10;;
7025;SDS011;3554;42.132;24.786;2023-05-20T13:54:25;6.13;;;3.70;;
7025;SDS011;3554;42.132;24.786;2023-05-20T13:56:53;4.40;;;4.00;;
7025;SDS011;3554;42.132;24.786;2023-05-20T13:59:20;4.33;;;3.93;;
7025;SDS011;3554;42.132;24.786;2023-05-20T14:01:47;4.93;;;4.03;;
7025;SDS011;3554;42.132;24.786;2023-05-20T14:04:14;4.53;;;4.30;;
7025;SDS011;3554;42.132;24.786;2023-05-20T14:06:41;3.27;;;3.07;;
7025;SDS011;3554;42.132;24.786;2023-05-20T14:09:08;3.67;;;3.47;;
7025;SDS011;3554;42.132;24.786;2023-05-20T14:11:35;4.47;;;4.17;;
7025;SDS011;3554;42.132;24.786;2023-05-20T14:14:04;4.23;;;4.03;;
7025;SDS011;3554;42.132;24.786;2023-05-20T14:16:31;4.33;;;3.93;;
7025;SDS011;3554;42.132;24.786;2023-05-20T14:18:57;4.07;;;3.87;;
7025;SDS011;3554;42.132;24.786;2023-05-20T14:21:24;4.33;;;4.10;;
7025;SDS011;3554;42.132;24.786;2023-05-20T14:23:51;3.87;;;3.63;;
7025;SDS011;3554;42.132;24.786;2023-05-20T14:26:18;4.97;;;4.47;;
7025;SDS011;3554;42.132;24.786;2023-05-20T14:28:45;4.17;;;3.90;;
7025;SDS011;3554;42.132;24.786;2023-05-20T14:31:13;6.20;;;3.77;;
7025;SDS011;3554;42.132;24.786;2023-05-20T14:33:40;3.97;;;3.67;;
7025;SDS011;3554;42.132;24.786;2023-05-20T14:36:07;4.30;;;3.80;;
7025;SDS011;3554;42.132;24.786;2023-05-20T14:38:34;5.07;;;3.97;;
7025;SDS011;3554;42.132;24.786;2023-05-20T14:41:00;4.03;;;3.83;;
7025;SDS011;3554;42.132;24.786;2023-05-20T14:43:27;4.53;;;4.10;;
7025;SDS011;3554;42.132;24.786;2023-05-20T14:45:56;5.10;;;4.43;;
7025;SDS011;3554;42.132;24.786;2023-05-20T14:48:24;7.00;;;4.37;;
7025;SDS011;3554;42.132;24.786;2023-05-20T14:50:51;4.23;;;3.57;;
7025;SDS011;3554;42.132;24.786;2023-05-20T14:53:18;4.70;;;4.40;;
7025;SDS011;3554;42.132;24.786;2023-05-20T14:55:44;5.83;;;5.33;;
7025;SDS011;3554;42.132;24.786;2023-05-20T14:58:11;6.57;;;4.23;;
7025;SDS011;3554;42.132;24.786;2023-05-20T15:00:38;8.17;;;3.80;;
7025;SDS011;3554;42.132;24.786;2023-05-20T15:03:05;4.47;;;4.07;;
7025;SDS011;3554;42.132;24.786;2023-05-20T15:05:33;6.20;;;5.57;;